Time;durP1;ratioP1;P1;durP2;ratioP2;P2;SDS_P1;SDS_P2;PMS_P1;PMS_P2;Temp;Humidity;BMP_temperature;BMP_pressure;BME280_temperature;BME280_humidity;BME280_pressure;Samples;Min_cycle;Max_cycle;Signal;HPM_P1;HPM_P2
2021/07/17 00:01:52;;;;;;;37.55;10.63;;;;;;;;;;5072278;28;20027;-64
2021/07/17 00:04:18;;;;;;;34.05;9.55;;;;;;;;;;5072605;28;20404;-64
2021/07/17 00:06:44;;;;;;;40.40;10.95;;;;;;;;;;5072700;28;20025;-64
2021/07/17 00:09:10;;;;;;;29.75;9.90;;;;;;;;;;5079222;28;20331;-64
2021/07/17 00:11:37;;;;;;;28.42;9.82;;;;;;;;;;5074652;28;20031;-64
2021/07/17 00:14:03;;;;;;;26.92;9.18;;;;;;;;;;5077774;28;20444;-63
2021/07/17 00:16:29;;;;;;;40.95;11.52;;;;;;;;;;5082969;28;20024;-64
2021/07/17 00:18:55;;;;;;;34.50;10.43;;;;;;;;;;5072161;28;20050;-64
2021/07/17 00:21:22;;;;;;;33.97;10.63;;;;;;;;;;5076788;28;20024;-64
2021/07/17 00:23:49;;;;;;;34.15;10.75;;;;;;;;;;5073675;28;20106;-64
2021/07/17 00:26:15;;;;;;;34.63;11.10;;;;;;;;;;5081186;28;20028;-64
2021/07/17 00:28:41;;;;;;;27.75;9.70;;;;;;;;;;5085190;28;20024;-64
2021/07/17 00:31:07;;;;;;;40.65;10.02;;;;;;;;;;5076488;28;20020;-64
2021/07/17 00:33:33;;;;;;;33.13;10.20;;;;;;;;;;5068023;28;20050;-64
2021/07/17 00:35:59;;;;;;;30.65;10.43;;;;;;;;;;5076011;28;20094;-64
2021/07/17 00:38:25;;;;;;;32.83;11.13;;;;;;;;;;5071661;28;20051;-63
2021/07/17 00:40:51;;;;;;;34.53;11.20;;;;;;;;;;5071619;28;20404;-64
2021/07/17 00:43:17;;;;;;;41.78;11.13;;;;;;;;;;5077471;28;20036;-64
2021/07/17 00:45:43;;;;;;;33.30;9.48;;;;;;;;;;5072170;28;20020;-64
2021/07/17 00:48:09;;;;;;;29.33;9.90;;;;;;;;;;5081688;28;20024;-64
2021/07/17 00:50:35;;;;;;;32.72;10.75;;;;;;;;;;5075412;28;20104;-64
2021/07/17 00:53:02;;;;;;;28.83;9.80;;;;;;;;;;5079051;28;20047;-64
2021/07/17 00:55:28;;;;;;;31.42;10.88;;;;;;;;;;5090952;28;20118;-64
2021/07/17 00:57:56;;;;;;;34.83;10.30;;;;;;;;;;5110258;28;20020;-62
2021/07/17 01:00:22;;;;;;;36.22;9.57;;;;;;;;;;5093550;28;20028;-64
2021/07/17 01:02:49;;;;;;;24.88;10.07;;;;;;;;;;5111615;28;20045;-64
2021/07/17 01:05:16;;;;;;;27.58;10.10;;;;;;;;;;5109951;28;20015;-64
2021/07/17 01:07:42;;;;;;;35.50;12.05;;;;;;;;;;5112122;27;20119;-64
2021/07/17 01:10:09;;;;;;;33.95;10.35;;;;;;;;;;5119620;27;20030;-63
2021/07/17 01:12:35;;;;;;;28.55;10.50;;;;;;;;;;5092985;28;20024;-64
2021/07/17 01:15:01;;;;;;;34.90;11.18;;;;;;;;;;5091795;28;20040;-64
2021/07/17 01:17:27;;;;;;;28.38;10.55;;;;;;;;;;5110856;28;20483;-64
2021/07/17 01:19:54;;;;;;;30.42;10.45;;;;;;;;;;5109057;28;20092;-64
2021/07/17 01:22:20;;;;;;;25.23;9.77;;;;;;;;;;5110420;28;20020;-63
2021/07/17 01:24:47;;;;;;;32.03;10.48;;;;;;;;;;5109220;28;20034;-64
2021/07/17 01:27:14;;;;;;;38.63;11.10;;;;;;;;;;5111230;28;20042;-64
2021/07/17 01:29:40;;;;;;;31.15;10.57;;;;;;;;;;5110843;28;20031;-64
2021/07/17 01:32:06;;;;;;;29.70;9.55;;;;;;;;;;5091348;28;20023;-64
2021/07/17 01:34:32;;;;;;;41.08;10.68;;;;;;;;;;5108200;28;20039;-64
2021/07/17 01:36:58;;;;;;;33.03;9.88;;;;;;;;;;5110999;28;20023;-64
2021/07/17 01:39:24;;;;;;;34.42;12.23;;;;;;;;;;5110597;28;20031;-64
2021/07/17 01:41:51;;;;;;;28.48;10.10;;;;;;;;;;5110567;28;20016;-64
2021/07/17 01:44:17;;;;;;;29.85;10.38;;;;;;;;;;5108949;28;20054;-64
2021/07/17 01:46:43;;;;;;;41.25;12.55;;;;;;;;;;5111526;28;20028;-64
2021/07/17 01:49:09;;;;;;;40.53;11.45;;;;;;;;;;5091384;28;20461;-64
2021/07/17 01:51:35;;;;;;;35.45;11.75;;;;;;;;;;5110865;28;20023;-64
2021/07/17 01:54:01;;;;;;;30.88;10.43;;;;;;;;;;5108098;28;20580;-64
2021/07/17 01:56:27;;;;;;;37.03;11.80;;;;;;;;;;5091976;28;20023;-64
2021/07/17 01:58:54;;;;;;;28.50;10.90;;;;;;;;;;5092432;28;20019;-64
2021/07/17 02:01:21;;;;;;;35.17;11.20;;;;;;;;;;5110601;28;20028;-64
2021/07/17 02:03:48;;;;;;;32.95;10.63;;;;;;;;;;5090175;28;20028;-64
2021/07/17 02:06:14;;;;;;;36.30;11.48;;;;;;;;;;5110506;28;20051;-64
2021/07/17 02:08:41;;;;;;;31.58;10.80;;;;;;;;;;5100569;28;20027;-64
2021/07/17 02:11:08;;;;;;;38.53;11.25;;;;;;;;;;5111353;28;20020;-65
2021/07/17 02:13:34;;;;;;;29.30;10.55;;;;;;;;;;5109612;28;20036;-64
2021/07/17 02:16:01;;;;;;;29.98;10.95;;;;;;;;;;5109197;28;20027;-63
2021/07/17 02:18:31;;;;;;;28.42;10.45;;;;;;;;;;5110524;28;20069;-64
2021/07/17 02:20:58;;;;;;;33.20;10.30;;;;;;;;;;5106768;28;20550;-63
2021/07/17 02:23:24;;;;;;;32.10;10.10;;;;;;;;;;5110156;28;20771;-64
2021/07/17 02:25:50;;;;;;;33.03;10.27;;;;;;;;;;5108735;28;20132;-64
2021/07/17 02:28:16;;;;;;;37.85;11.07;;;;;;;;;;5108863;28;20024;-64
2021/07/17 02:30:42;;;;;;;31.55;11.00;;;;;;;;;;5110192;28;20498;-64
2021/07/17 02:33:09;;;;;;;29.88;10.48;;;;;;;;;;5110264;28;20028;-64
2021/07/17 02:35:35;;;;;;;28.83;10.93;;;;;;;;;;5108543;28;20020;-64
2021/07/17 02:38:01;;;;;;;29.35;10.30;;;;;;;;;;5106109;28;20024;-64
2021/07/17 02:40:27;;;;;;;29.42;10.73;;;;;;;;;;5104981;28;20023;-64
2021/07/17 02:42:53;;;;;;;29.48;9.68;;;;;;;;;;5110270;28;20031;-64
2021/07/17 02:45:19;;;;;;;52.40;10.88;;;;;;;;;;5109208;28;20043;-64
2021/07/17 02:47:45;;;;;;;31.50;10.20;;;;;;;;;;5091115;28;20027;-64
2021/07/17 02:50:11;;;;;;;31.05;11.00;;;;;;;;;;5093754;28;20035;-64
2021/07/17 02:52:37;;;;;;;31.42;10.25;;;;;;;;;;5095229;28;20036;-64
2021/07/17 02:55:04;;;;;;;34.83;10.68;;;;;;;;;;5111295;28;20534;-64
2021/07/17 02:57:30;;;;;;;28.05;10.43;;;;;;;;;;5113964;28;20020;-63
2021/07/17 02:59:56;;;;;;;28.35;9.93;;;;;;;;;;5114282;28;20028;-64
2021/07/17 03:02:23;;;;;;;31.50;11.68;;;;;;;;;;5113111;28;20024;-64
2021/07/17 03:04:49;;;;;;;28.75;10.15;;;;;;;;;;5112320;28;20024;-63
2021/07/17 03:07:15;;;;;;;33.05;9.90;;;;;;;;;;5114536;28;20040;-64
2021/07/17 03:09:41;;;;;;;33.13;9.77;;;;;;;;;;5113433;28;20027;-64
2021/07/17 03:12:07;;;;;;;29.25;10.00;;;;;;;;;;5113474;28;20118;-64
2021/07/17 03:14:33;;;;;;;29.55;9.32;;;;;;;;;;5112004;28;20059;-63
2021/07/17 03:17:00;;;;;;;30.35;9.77;;;;;;;;;;5113926;28;20487;-64
2021/07/17 03:19:26;;;;;;;34.25;10.60;;;;;;;;;;5113735;28;20027;-65
2021/07/17 03:21:53;;;;;;;27.13;10.00;;;;;;;;;;5113589;28;20073;-64
2021/07/17 03:24:19;;;;;;;33.15;10.05;;;;;;;;;;5111110;28;20567;-65
2021/07/17 03:26:45;;;;;;;29.10;9.40;;;;;;;;;;5113123;28;20019;-64
2021/07/17 03:29:11;;;;;;;29.13;9.98;;;;;;;;;;5114208;28;20038;-65
2021/07/17 03:31:37;;;;;;;29.17;9.63;;;;;;;;;;5111970;28;20027;-64
2021/07/17 03:34:03;;;;;;;27.95;9.75;;;;;;;;;;5111349;28;20502;-64
2021/07/17 03:36:29;;;;;;;35.17;9.40;;;;;;;;;;5113190;28;20491;-65
2021/07/17 03:38:56;;;;;;;36.72;10.65;;;;;;;;;;5113947;28;20024;-65
2021/07/17 03:41:22;;;;;;;40.92;12.05;;;;;;;;;;5113798;28;20023;-65
2021/07/17 03:43:48;;;;;;;33.17;11.75;;;;;;;;;;5111051;28;20020;-64
2021/07/17 03:46:14;;;;;;;31.65;10.07;;;;;;;;;;5095015;28;20034;-64
2021/07/17 03:48:41;;;;;;;27.33;9.93;;;;;;;;;;5113282;28;20075;-64
2021/07/17 03:51:07;;;;;;;33.65;9.35;;;;;;;;;;5094549;28;20097;-64
2021/07/17 03:53:34;;;;;;;28.73;9.82;;;;;;;;;;5092709;28;20039;-64
2021/07/17 03:56:00;;;;;;;33.22;9.88;;;;;;;;;;5112038;28;20491;-65
2021/07/17 03:58:26;;;;;;;26.92;11.05;;;;;;;;;;5113525;28;20016;-64
2021/07/17 04:00:52;;;;;;;31.23;9.68;;;;;;;;;;5112349;28;20020;-65
2021/07/17 04:03:18;;;;;;;38.80;10.55;;;;;;;;;;5111656;28;20043;-64
2021/07/17 04:05:44;;;;;;;30.48;10.93;;;;;;;;;;5111125;28;20028;-65
2021/07/17 04:08:11;;;;;;;31.00;10.60;;;;;;;;;;5105162;28;20060;-65
2021/07/17 04:10:37;;;;;;;28.27;9.35;;;;;;;;;;5109308;28;20066;-65
2021/07/17 04:13:04;;;;;;;27.48;9.45;;;;;;;;;;5094285;28;20039;-65
2021/07/17 04:15:30;;;;;;;33.83;9.30;;;;;;;;;;5092214;28;20020;-65
2021/07/17 04:17:56;;;;;;;29.95;9.52;;;;;;;;;;5091850;28;20028;-65
2021/07/17 04:20:22;;;;;;;25.23;9.00;;;;;;;;;;5112794;28;20024;-65
2021/07/17 04:22:48;;;;;;;32.92;9.98;;;;;;;;;;5094722;28;20028;-65
2021/07/17 04:25:14;;;;;;;33.83;9.43;;;;;;;;;;5109199;28;20042;-65
2021/07/17 04:27:40;;;;;;;36.13;10.00;;;;;;;;;;5113148;28;20024;-65
2021/07/17 04:30:07;;;;;;;24.75;10.27;;;;;;;;;;5111377;28;20134;-65
2021/07/17 04:32:33;;;;;;;30.85;10.55;;;;;;;;;;5111698;28;20090;-65
2021/07/17 04:34:59;;;;;;;28.90;10.75;;;;;;;;;;5109293;28;20100;-65
2021/07/17 04:37:25;;;;;;;34.78;10.20;;;;;;;;;;5093474;28;20032;-64
2021/07/17 04:39:51;;;;;;;34.03;10.02;;;;;;;;;;5112708;28;20016;-65
2021/07/17 04:42:18;;;;;;;30.65;9.77;;;;;;;;;;5112496;28;20584;-64
2021/07/17 04:44:44;;;;;;;29.58;9.88;;;;;;;;;;5110742;28;20487;-65
2021/07/17 04:47:10;;;;;;;28.52;10.27;;;;;;;;;;5112543;28;20026;-65
2021/07/17 04:49:36;;;;;;;29.30;9.88;;;;;;;;;;5111890;28;20032;-65
2021/07/17 04:52:03;;;;;;;31.85;9.48;;;;;;;;;;5112563;28;20035;-65
2021/07/17 04:54:29;;;;;;;36.30;9.45;;;;;;;;;;5109261;28;20044;-64
2021/07/17 04:56:55;;;;;;;39.45;9.82;;;;;;;;;;5112011;28;20030;-65
2021/07/17 04:59:21;;;;;;;30.25;9.25;;;;;;;;;;5111191;28;20525;-65
2021/07/17 05:01:47;;;;;;;28.90;10.02;;;;;;;;;;5093947;28;21506;-65
2021/07/17 05:04:13;;;;;;;32.70;9.75;;;;;;;;;;5109193;28;20122;-65
2021/07/17 05:06:39;;;;;;;36.88;11.23;;;;;;;;;;5111789;28;20011;-65
2021/07/17 05:09:05;;;;;;;28.73;11.10;;;;;;;;;;5110814;28;20028;-65
2021/07/17 05:11:31;;;;;;;33.40;11.40;;;;;;;;;;5092428;28;20012;-65
2021/07/17 05:13:58;;;;;;;29.35;10.98;;;;;;;;;;5108866;28;20664;-65
2021/07/17 05:16:24;;;;;;;30.58;10.20;;;;;;;;;;5116766;27;20076;-65
2021/07/17 05:18:50;;;;;;;23.52;9.18;;;;;;;;;;5093877;28;20030;-65
2021/07/17 05:21:16;;;;;;;44.20;9.98;;;;;;;;;;5110564;28;20024;-65
2021/07/17 05:23:42;;;;;;;31.10;9.60;;;;;;;;;;5110077;28;20503;-64
2021/07/17 05:26:08;;;;;;;27.58;10.23;;;;;;;;;;5109666;28;20039;-64
2021/07/17 05:28:34;;;;;;;40.90;9.95;;;;;;;;;;5109528;28;20032;-64
2021/07/17 05:31:00;;;;;;;30.30;10.50;;;;;;;;;;5112105;28;20035;-65
2021/07/17 05:33:27;;;;;;;33.13;10.32;;;;;;;;;;5110501;28;20031;-65
2021/07/17 05:35:53;;;;;;;25.67;9.30;;;;;;;;;;5091840;28;20032;-64
2021/07/17 05:38:19;;;;;;;37.17;11.27;;;;;;;;;;5109527;28;20049;-64
2021/07/17 05:40:45;;;;;;;36.67;11.15;;;;;;;;;;5092269;28;20024;-64
2021/07/17 05:43:11;;;;;;;34.05;10.68;;;;;;;;;;5110482;28;20032;-65
2021/07/17 05:45:37;;;;;;;30.48;9.50;;;;;;;;;;5109703;28;20514;-65
2021/07/17 05:48:04;;;;;;;27.80;8.18;;;;;;;;;;5091499;28;20186;-65
2021/07/17 05:50:30;;;;;;;20.70;8.63;;;;;;;;;;5111156;28;20051;-64
2021/07/17 05:52:56;;;;;;;25.98;8.45;;;;;;;;;;5110555;28;20502;-65
2021/07/17 05:55:22;;;;;;;32.85;9.73;;;;;;;;;;5107085;28;20031;-64
2021/07/17 05:57:48;;;;;;;31.88;8.25;;;;;;;;;;5091562;28;20019;-65
2021/07/17 06:00:19;;;;;;;29.45;8.52;;;;;;;;;;5110343;28;20027;-65
2021/07/17 06:02:45;;;;;;;28.55;9.05;;;;;;;;;;5109092;28;20099;-64
2021/07/17 06:05:11;;;;;;;19.35;8.75;;;;;;;;;;5108964;28;20035;-64
2021/07/17 06:07:37;;;;;;;26.00;8.93;;;;;;;;;;5092782;28;20043;-64
2021/07/17 06:10:04;;;;;;;26.65;9.60;;;;;;;;;;5114321;27;20027;-65
2021/07/17 06:12:30;;;;;;;22.45;9.20;;;;;;;;;;5110537;28;20035;-65
2021/07/17 06:14:56;;;;;;;28.23;9.60;;;;;;;;;;5104912;28;20024;-64
2021/07/17 06:17:22;;;;;;;26.38;9.75;;;;;;;;;;5110866;28;20027;-65
2021/07/17 06:19:48;;;;;;;24.30;10.40;;;;;;;;;;5109669;28;20031;-64
2021/07/17 06:22:14;;;;;;;28.50;9.23;;;;;;;;;;5110598;28;20407;-64
2021/07/17 06:24:40;;;;;;;28.90;9.23;;;;;;;;;;5108946;28;20024;-64
2021/07/17 06:27:07;;;;;;;24.02;8.00;;;;;;;;;;5095181;28;20027;-64
2021/07/17 06:29:34;;;;;;;24.02;8.32;;;;;;;;;;5110953;28;20059;-65
2021/07/17 06:32:00;;;;;;;19.20;8.38;;;;;;;;;;5105685;28;20054;-64
2021/07/17 06:34:26;;;;;;;23.20;6.95;;;;;;;;;;5090865;28;20088;-64
2021/07/17 06:36:52;;;;;;;29.73;8.95;;;;;;;;;;5111333;28;20019;-65
2021/07/17 06:39:18;;;;;;;30.17;8.40;;;;;;;;;;5109387;27;20110;-65
2021/07/17 06:41:44;;;;;;;25.15;8.00;;;;;;;;;;5113613;28;20076;-64
2021/07/17 06:44:10;;;;;;;25.77;8.10;;;;;;;;;;5113174;28;20077;-64
2021/07/17 06:46:36;;;;;;;30.40;8.18;;;;;;;;;;5096487;28;20054;-64
2021/07/17 06:49:02;;;;;;;23.15;7.88;;;;;;;;;;5108602;28;20031;-65
2021/07/17 06:51:28;;;;;;;28.15;8.20;;;;;;;;;;5113986;28;20391;-65
2021/07/17 06:53:54;;;;;;;23.33;7.63;;;;;;;;;;5111628;28;20044;-65
2021/07/17 06:56:21;;;;;;;21.80;6.78;;;;;;;;;;5113260;28;20043;-64
2021/07/17 06:58:47;;;;;;;22.42;6.60;;;;;;;;;;5114141;28;20043;-64
2021/07/17 07:01:13;;;;;;;23.70;7.43;;;;;;;;;;5113162;28;20015;-64
2021/07/17 07:03:39;;;;;;;25.25;7.15;;;;;;;;;;5109390;28;20024;-64
2021/07/17 07:06:05;;;;;;;20.90;6.32;;;;;;;;;;5112158;28;20034;-63
2021/07/17 07:08:32;;;;;;;23.20;6.53;;;;;;;;;;5114298;28;20027;-64
2021/07/17 07:10:58;;;;;;;20.08;6.70;;;;;;;;;;5095943;28;20024;-64
2021/07/17 07:13:24;;;;;;;21.95;6.32;;;;;;;;;;5093986;28;20034;-65
2021/07/17 07:15:50;;;;;;;19.92;6.35;;;;;;;;;;5110700;28;20452;-64
2021/07/17 07:18:16;;;;;;;28.92;7.15;;;;;;;;;;5094450;28;20501;-64
2021/07/17 07:20:42;;;;;;;20.40;6.03;;;;;;;;;;5113588;28;20045;-65
2021/07/17 07:23:08;;;;;;;17.48;7.35;;;;;;;;;;5094560;28;20091;-65
2021/07/17 07:25:35;;;;;;;24.33;7.53;;;;;;;;;;5098743;28;21003;-64
2021/07/17 07:28:01;;;;;;;26.63;7.68;;;;;;;;;;5112721;28;20029;-64
2021/07/17 07:30:27;;;;;;;20.27;7.53;;;;;;;;;;5115414;27;20029;-65
2021/07/17 07:32:53;;;;;;;24.83;5.70;;;;;;;;;;5110924;28;20032;-65
2021/07/17 07:35:21;;;;;;;33.35;8.43;;;;;;;;;;5110436;28;20031;-66
2021/07/17 07:37:48;;;;;;;26.13;6.10;;;;;;;;;;5110802;28;20494;-65
2021/07/17 07:40:15;;;;;;;19.17;6.35;;;;;;;;;;5111990;28;20495;-65
2021/07/17 07:42:41;;;;;;;24.30;6.20;;;;;;;;;;5110591;28;20085;-64
2021/07/17 07:45:08;;;;;;;23.73;6.63;;;;;;;;;;5110708;28;20034;-65
2021/07/17 07:47:34;;;;;;;23.55;6.38;;;;;;;;;;5111049;28;20113;-65
2021/07/17 07:50:00;;;;;;;24.75;7.35;;;;;;;;;;5112440;28;20027;-65
2021/07/17 07:52:26;;;;;;;26.13;7.82;;;;;;;;;;5108342;28;20031;-64
2021/07/17 07:54:52;;;;;;;17.70;5.40;;;;;;;;;;5090465;28;20035;-64
2021/07/17 07:57:19;;;;;;;21.67;5.75;;;;;;;;;;5110519;28;20433;-64
2021/07/17 07:59:46;;;;;;;26.80;6.80;;;;;;;;;;5111388;28;20043;-64
2021/07/17 08:02:12;;;;;;;22.50;6.85;;;;;;;;;;5110221;28;20110;-65
2021/07/17 08:04:38;;;;;;;20.95;6.18;;;;;;;;;;5107886;28;20030;-65
2021/07/17 08:07:04;;;;;;;28.45;6.03;;;;;;;;;;5111164;28;20520;-64
2021/07/17 08:09:30;;;;;;;19.60;5.80;;;;;;;;;;5110256;28;20032;-64
2021/07/17 08:11:56;;;;;;;22.20;6.07;;;;;;;;;;5109166;28;20015;-66
2021/07/17 08:14:22;;;;;;;21.60;6.45;;;;;;;;;;5089980;28;20110;-65
2021/07/17 08:16:48;;;;;;;22.92;6.45;;;;;;;;;;5092955;28;20019;-64
2021/07/17 08:19:16;;;;;;;19.55;5.72;;;;;;;;;;5109258;28;20032;-65
2021/07/17 08:21:42;;;;;;;22.60;6.78;;;;;;;;;;5108523;28;20116;-65
2021/07/17 08:24:08;;;;;;;20.13;5.28;;;;;;;;;;5106957;28;20035;-65
2021/07/17 08:26:35;;;;;;;19.83;5.65;;;;;;;;;;5109351;28;20031;-65
2021/07/17 08:29:01;;;;;;;19.02;5.65;;;;;;;;;;5109732;28;20035;-64
2021/07/17 08:31:27;;;;;;;22.25;5.63;;;;;;;;;;5105970;28;20054;-64
2021/07/17 08:33:53;;;;;;;30.50;6.07;;;;;;;;;;5106112;28;20039;-64
2021/07/17 08:36:19;;;;;;;19.48;5.93;;;;;;;;;;5110785;28;20023;-63
2021/07/17 08:38:45;;;;;;;24.83;5.30;;;;;;;;;;5109860;28;20026;-63
2021/07/17 08:41:12;;;;;;;23.95;6.00;;;;;;;;;;5109559;28;20543;-64
2021/07/17 08:43:39;;;;;;;26.20;5.35;;;;;;;;;;5106444;28;20024;-64
2021/07/17 08:46:05;;;;;;;28.15;6.15;;;;;;;;;;5088590;28;20032;-64
2021/07/17 08:48:32;;;;;;;18.90;5.72;;;;;;;;;;5105076;28;20032;-64
2021/07/17 08:50:59;;;;;;;21.25;6.18;;;;;;;;;;5104724;28;20024;-65
2021/07/17 08:53:26;;;;;;;23.00;6.25;;;;;;;;;;5107827;28;20527;-65
2021/07/17 08:55:53;;;;;;;19.27;5.88;;;;;;;;;;5103971;28;20031;-63
2021/07/17 08:58:20;;;;;;;22.02;6.30;;;;;;;;;;5103685;28;20027;-65
2021/07/17 09:00:46;;;;;;;16.85;5.70;;;;;;;;;;5104955;28;20023;-65
2021/07/17 09:03:17;;;;;;;20.27;5.75;;;;;;;;;;5105044;28;20502;-64
2021/07/17 09:05:45;;;;;;;18.88;6.25;;;;;;;;;;5103965;28;20038;-64
2021/07/17 09:08:11;;;;;;;17.02;5.07;;;;;;;;;;5087552;28;20070;-64
2021/07/17 09:10:38;;;;;;;23.02;5.30;;;;;;;;;;5105568;28;20024;-63
2021/07/17 09:13:07;;;;;;;16.60;5.60;;;;;;;;;;5100908;28;20032;-65
2021/07/17 09:15:34;;;;;;;17.95;5.53;;;;;;;;;;5100447;27;20630;-65
2021/07/17 09:18:00;;;;;;;18.80;5.80;;;;;;;;;;5102218;28;20044;-64
2021/07/17 09:20:27;;;;;;;12.93;5.20;;;;;;;;;;5106338;28;20077;-64
2021/07/17 09:23:00;;;;;;;18.48;5.45;;;;;;;;;;5106707;28;20123;-64
2021/07/17 09:25:34;;;;;;;15.77;5.00;;;;;;;;;;5104907;28;20502;-63
2021/07/17 09:28:21;;;;;;;14.43;4.40;;;;;;;;;;5109450;28;20431;-65
2021/07/17 09:30:48;;;;;;;18.25;5.45;;;;;;;;;;5107081;28;20043;-65
2021/07/17 09:33:14;;;;;;;17.02;5.28;;;;;;;;;;5105811;28;20023;-64
2021/07/17 09:35:50;;;;;;;19.52;5.70;;;;;;;;;;5105345;28;20059;-65
2021/07/17 09:38:17;;;;;;;22.90;5.82;;;;;;;;;;5108868;28;20019;-64
2021/07/17 09:40:43;;;;;;;23.48;5.75;;;;;;;;;;5103718;27;20316;-64
2021/07/17 09:43:09;;;;;;;24.38;6.20;;;;;;;;;;5089475;28;20104;-65
2021/07/17 09:45:41;;;;;;;18.38;5.90;;;;;;;;;;5100972;28;20020;-64
2021/07/17 09:48:19;;;;;;;18.98;5.03;;;;;;;;;;5106843;28;20026;-64
2021/07/17 09:50:46;;;;;;;18.83;5.15;;;;;;;;;;5087019;28;20115;-64
2021/07/17 09:53:12;;;;;;;22.70;5.57;;;;;;;;;;5089554;28;20541;-64
2021/07/17 09:55:38;;;;;;;17.85;6.20;;;;;;;;;;5104599;28;20028;-64
2021/07/17 09:58:10;;;;;;;20.05;5.75;;;;;;;;;;5106360;28;20526;-65
2021/07/17 10:00:37;;;;;;;25.60;5.53;;;;;;;;;;5087086;28;20399;-64
2021/07/17 10:03:29;;;;;;;21.40;5.93;;;;;;;;;;5105545;28;20030;-64
2021/07/17 10:05:55;;;;;;;19.13;5.32;;;;;;;;;;5100085;28;20043;-64
2021/07/17 10:08:21;;;;;;;18.45;5.97;;;;;;;;;;5107876;28;20040;-65
2021/07/17 10:11:00;;;;;;;18.00;4.60;;;;;;;;;;5104577;28;20035;-65
2021/07/17 10:13:27;;;;;;;21.92;5.82;;;;;;;;;;5105731;28;20024;-65
2021/07/17 10:15:54;;;;;;;17.80;6.30;;;;;;;;;;5102916;28;20023;-64
2021/07/17 10:18:25;;;;;;;18.98;5.07;;;;;;;;;;5108331;28;20257;-64
2021/07/17 10:20:55;;;;;;;21.05;6.63;;;;;;;;;;5105485;28;20028;-64
2021/07/17 10:23:21;;;;;;;32.63;6.10;;;;;;;;;;5106325;28;20031;-64
2021/07/17 10:25:48;;;;;;;22.85;5.53;;;;;;;;;;5104765;28;20020;-64
2021/07/17 10:28:14;;;;;;;17.75;6.05;;;;;;;;;;5090241;28;20406;-64
2021/07/17 10:30:40;;;;;;;16.08;5.57;;;;;;;;;;5107451;28;20076;-64
2021/07/17 10:33:06;;;;;;;22.08;5.70;;;;;;;;;;5108298;28;20032;-64
2021/07/17 10:35:33;;;;;;;19.13;5.45;;;;;;;;;;5105761;28;20038;-64
2021/07/17 10:38:04;;;;;;;16.42;5.15;;;;;;;;;;5108926;28;20450;-65
2021/07/17 10:40:31;;;;;;;21.43;6.53;;;;;;;;;;5107864;28;20080;-64
2021/07/17 10:42:58;;;;;;;18.55;6.47;;;;;;;;;;5109148;28;20142;-63
2021/07/17 10:45:34;;;;;;;25.42;6.55;;;;;;;;;;5105267;28;20032;-64
2021/07/17 10:48:00;;;;;;;27.45;8.15;;;;;;;;;;5089971;28;20069;-64
2021/07/17 10:50:33;;;;;;;19.33;6.40;;;;;;;;;;5108859;28;20024;-64
2021/07/17 10:52:59;;;;;;;24.77;6.55;;;;;;;;;;5089014;28;20031;-64
2021/07/17 10:55:25;;;;;;;19.85;6.15;;;;;;;;;;5104908;28;20088;-63
2021/07/17 10:57:52;;;;;;;20.45;6.10;;;;;;;;;;5090250;28;20166;-63
2021/07/17 11:00:45;;;;;;;18.42;6.60;;;;;;;;;;5108877;28;20457;-64
2021/07/17 11:03:18;;;;;;;21.85;6.85;;;;;;;;;;5104418;28;20038;-63
2021/07/17 11:05:45;;;;;;;21.70;6.43;;;;;;;;;;5105727;28;20020;-64
2021/07/17 11:08:30;;;;;;;21.70;6.47;;;;;;;;;;5108563;28;20140;-64
2021/07/17 11:10:56;;;;;;;28.20;7.40;;;;;;;;;;5110319;28;20027;-64
2021/07/17 11:13:35;;;;;;;25.85;7.75;;;;;;;;;;5111455;28;20085;-65
2021/07/17 11:16:02;;;;;;;22.00;5.97;;;;;;;;;;5108318;27;20040;-63
2021/07/17 11:18:33;;;;;;;20.60;6.72;;;;;;;;;;5109902;28;20020;-64
2021/07/17 11:21:00;;;;;;;21.60;6.35;;;;;;;;;;5108925;28;20039;-64
2021/07/17 11:23:35;;;;;;;18.60;6.57;;;;;;;;;;5110758;28;20103;-64
2021/07/17 11:26:05;;;;;;;16.85;5.75;;;;;;;;;;5106358;28;20068;-64
2021/07/17 11:29:02;;;;;;;18.80;6.38;;;;;;;;;;5107169;28;20027;-64
2021/07/17 11:31:28;;;;;;;22.90;6.05;;;;;;;;;;5106971;28;20024;-64
2021/07/17 11:34:14;;;;;;;19.10;6.43;;;;;;;;;;5107091;28;20034;-65
2021/07/17 11:36:44;;;;;;;19.58;6.00;;;;;;;;;;5108956;28;20036;-65
2021/07/17 11:39:11;;;;;;;20.02;5.60;;;;;;;;;;5090580;28;20028;-65
2021/07/17 11:41:37;;;;;;;15.55;5.32;;;;;;;;;;5109090;28;20051;-65
2021/07/17 11:44:03;;;;;;;21.88;5.50;;;;;;;;;;5105762;28;20019;-64
2021/07/17 11:46:30;;;;;;;16.40;5.15;;;;;;;;;;5109469;28;20035;-64
2021/07/17 11:49:06;;;;;;;14.82;6.13;;;;;;;;;;5108549;28;20059;-64
2021/07/17 11:51:33;;;;;;;15.07;4.82;;;;;;;;;;5106465;28;20020;-64
2021/07/17 11:53:59;;;;;;;18.25;6.38;;;;;;;;;;5087004;28;20327;-64
2021/07/17 11:56:25;;;;;;;17.02;5.18;;;;;;;;;;5107027;28;20031;-65
2021/07/17 11:58:52;;;;;;;23.75;6.20;;;;;;;;;;5111190;28;20106;-65
2021/07/17 12:01:18;;;;;;;18.20;6.72;;;;;;;;;;5111492;28;20098;-65
2021/07/17 12:03:56;;;;;;;16.15;5.90;;;;;;;;;;5108303;28;20223;-64
2021/07/17 12:06:27;;;;;;;20.10;6.20;;;;;;;;;;5110782;28;20441;-64
2021/07/17 12:08:53;;;;;;;15.13;5.57;;;;;;;;;;5109424;28;20402;-64
2021/07/17 12:11:20;;;;;;;23.15;5.30;;;;;;;;;;5111274;28;20491;-64
2021/07/17 12:13:46;;;;;;;17.15;5.43;;;;;;;;;;5108412;28;20023;-64
2021/07/17 12:16:21;;;;;;;20.38;5.85;;;;;;;;;;5091334;28;20032;-64
2021/07/17 12:18:55;;;;;;;14.63;6.03;;;;;;;;;;5091059;28;20114;-65
2021/07/17 12:21:22;;;;;;;19.08;5.22;;;;;;;;;;5092432;28;20372;-64
2021/07/17 12:23:58;;;;;;;16.17;5.10;;;;;;;;;;5105116;28;20050;-66
2021/07/17 12:26:24;;;;;;;16.05;5.60;;;;;;;;;;5110495;28;20027;-65
2021/07/17 12:28:54;;;;;;;20.27;6.30;;;;;;;;;;5111301;28;20479;-66
2021/07/17 12:31:20;;;;;;;20.73;5.55;;;;;;;;;;5109814;28;20011;-65
2021/07/17 12:33:47;;;;;;;16.95;6.75;;;;;;;;;;5108081;28;20031;-65
2021/07/17 12:36:13;;;;;;;14.88;5.45;;;;;;;;;;5110298;28;20043;-65
2021/07/17 12:38:49;;;;;;;17.50;5.75;;;;;;;;;;5110742;28;20038;-66
2021/07/17 12:41:26;;;;;;;18.80;6.43;;;;;;;;;;5091858;28;20483;-66
2021/07/17 12:44:01;;;;;;;19.35;6.15;;;;;;;;;;5106155;28;20193;-66
2021/07/17 12:46:31;;;;;;;23.48;7.13;;;;;;;;;;5109805;28;20034;-65
2021/07/17 12:48:57;;;;;;;18.77;6.05;;;;;;;;;;5092567;28;20065;-65
2021/07/17 12:51:23;;;;;;;14.15;4.78;;;;;;;;;;5110933;28;20517;-65
2021/07/17 12:53:50;;;;;;;17.55;4.82;;;;;;;;;;5106599;28;20193;-66
2021/07/17 12:56:28;;;;;;;13.45;5.40;;;;;;;;;;5109605;28;20024;-66
2021/07/17 12:58:55;;;;;;;17.55;5.30;;;;;;;;;;5110805;28;20016;-65
2021/07/17 13:01:21;;;;;;;12.48;4.68;;;;;;;;;;5110563;28;20556;-66
2021/07/17 13:03:47;;;;;;;16.27;5.40;;;;;;;;;;5106597;28;20119;-65
2021/07/17 13:06:16;;;;;;;24.70;5.63;;;;;;;;;;5109075;28;20023;-64
2021/07/17 13:08:43;;;;;;;22.08;5.35;;;;;;;;;;5109809;28;20031;-66
2021/07/17 13:11:16;;;;;;;17.00;5.82;;;;;;;;;;5110342;28;20077;-65
2021/07/17 13:13:43;;;;;;;18.83;5.13;;;;;;;;;;5108516;28;20537;-65
2021/07/17 13:16:09;;;;;;;12.32;5.22;;;;;;;;;;5109458;28;20066;-66
2021/07/17 13:18:35;;;;;;;14.82;4.72;;;;;;;;;;5091496;28;20032;-65
2021/07/17 13:21:05;;;;;;;19.88;5.10;;;;;;;;;;5109925;28;20097;-65
2021/07/17 13:24:07;;;;;;;19.67;5.13;;;;;;;;;;5105559;28;20046;-65
2021/07/17 13:26:35;;;;;;;16.35;4.80;;;;;;;;;;5004937;28;20129;-65
2021/07/17 13:29:02;;;;;;;18.15;5.43;;;;;;;;;;5087888;28;20654;-64
2021/07/17 13:31:29;;;;;;;17.60;5.22;;;;;;;;;;5090865;28;20118;-65
2021/07/17 13:34:14;;;;;;;22.58;5.47;;;;;;;;;;5106189;28;20686;-65
2021/07/17 13:36:55;;;;;;;18.77;5.32;;;;;;;;;;5108215;28;20031;-64
2021/07/17 13:39:23;;;;;;;14.67;5.07;;;;;;;;;;5103113;28;20081;-63
2021/07/17 13:41:49;;;;;;;20.77;5.80;;;;;;;;;;5108027;28;20046;-65
2021/07/17 13:44:16;;;;;;;26.13;5.65;;;;;;;;;;5083489;28;20513;-65
2021/07/17 13:46:42;;;;;;;15.82;4.55;;;;;;;;;;5106786;28;20023;-65
2021/07/17 13:49:12;;;;;;;18.42;5.72;;;;;;;;;;5105424;28;20039;-65
2021/07/17 13:51:38;;;;;;;15.05;5.13;;;;;;;;;;5102274;28;20041;-66
2021/07/17 13:54:04;;;;;;;14.25;4.80;;;;;;;;;;5100751;28;20109;-65
2021/07/17 13:56:32;;;;;;;14.38;5.78;;;;;;;;;;5105447;28;20046;-66
2021/07/17 13:59:00;;;;;;;17.88;6.93;;;;;;;;;;5106237;28;20080;-66
2021/07/17 14:01:26;;;;;;;16.27;5.80;;;;;;;;;;5105174;28;20023;-65
2021/07/17 14:03:53;;;;;;;18.95;7.05;;;;;;;;;;5098231;28;20111;-64
2021/07/17 14:06:21;;;;;;;24.58;7.45;;;;;;;;;;5104803;28;20474;-64
2021/07/17 14:08:47;;;;;;;22.35;6.38;;;;;;;;;;5104265;28;20028;-65
2021/07/17 14:11:14;;;;;;;23.20;6.63;;;;;;;;;;5106745;28;20073;-64
2021/07/17 14:13:41;;;;;;;16.15;6.43;;;;;;;;;;5102438;28;20023;-66
2021/07/17 14:16:08;;;;;;;21.90;7.47;;;;;;;;;;5094155;28;20027;-66
2021/07/17 14:18:34;;;;;;;21.60;8.20;;;;;;;;;;5105022;28;20027;-65
2021/07/17 14:21:01;;;;;;;17.52;7.00;;;;;;;;;;5104747;28;20366;-65
2021/07/17 14:23:27;;;;;;;15.60;7.53;;;;;;;;;;5103238;28;20027;-66
2021/07/17 14:25:54;;;;;;;18.75;6.80;;;;;;;;;;5099251;28;20028;-64
2021/07/17 14:28:20;;;;;;;15.65;7.20;;;;;;;;;;5102382;28;20501;-64